Time;durP1;ratioP1;P1;durP2;ratioP2;P2;SDS_P1;SDS_P2;PMS_P1;PMS_P2;Temp;Humidity;BMP_temperature;BMP_pressure;BME280_temperature;BME280_humidity;BME280_pressure;Samples;Min_cycle;Max_cycle;Signal;HPM_P1;HPM_P2
2024/02/03 00:00:12;;;;;;;76.80;48.20;;;;;;;;;;6256374;28;24474;-73
2024/02/03 00:03:15;;;;;;;66.40;43.90;;;;;;;;;;6239308;28;24435;-73
2024/02/03 00:06:17;;;;;;;64.13;42.95;;;;;;;;;;6263443;28;25203;-73
2024/02/03 00:09:18;;;;;;;67.20;43.95;;;;;;;;;;6264189;28;24829;-74
2024/02/03 00:12:22;;;;;;;64.63;42.70;;;;;;;;;;6267329;28;24415;-74
2024/02/03 00:15:24;;;;;;;63.63;41.63;;;;;;;;;;6265010;28;24459;-74
2024/02/03 00:18:29;;;;;;;65.15;42.58;;;;;;;;;;6264103;28;24435;-74
2024/02/03 00:21:31;;;;;;;65.50;43.42;;;;;;;;;;6266093;28;24431;-74
2024/02/03 00:24:34;;;;;;;62.65;41.78;;;;;;;;;;6265431;28;24842;-74
2024/02/03 00:27:36;;;;;;;61.60;40.72;;;;;;;;;;6265413;28;24423;-74
2024/02/03 00:30:37;;;;;;;64.50;41.72;;;;;;;;;;6263192;28;24428;-74
2024/02/03 00:33:40;;;;;;;61.92;41.30;;;;;;;;;;6265880;28;24546;-74
2024/02/03 00:36:42;;;;;;;62.90;41.38;;;;;;;;;;6267089;28;24424;-74
2024/02/03 00:39:43;;;;;;;64.15;41.60;;;;;;;;;;6264917;28;24498;-74
2024/02/03 00:42:45;;;;;;;59.42;40.35;;;;;;;;;;6267114;28;24422;-74
2024/02/03 00:45:47;;;;;;;66.13;41.78;;;;;;;;;;6263384;28;24547;-74
2024/02/03 00:48:50;;;;;;;63.88;42.47;;;;;;;;;;6263729;28;24422;-74
2024/02/03 00:51:52;;;;;;;62.83;41.85;;;;;;;;;;6266084;28;24438;-74
2024/02/03 00:54:53;;;;;;;63.60;42.72;;;;;;;;;;6267152;28;24462;-74
2024/02/03 00:57:55;;;;;;;65.22;42.33;;;;;;;;;;6240479;28;24448;-74
2024/02/03 01:00:57;;;;;;;61.60;41.65;;;;;;;;;;6264174;28;24874;-74
2024/02/03 01:04:00;;;;;;;65.22;42.22;;;;;;;;;;6261610;28;24776;-74
2024/02/03 01:07:02;;;;;;;67.05;41.53;;;;;;;;;;6239586;28;24463;-74
2024/02/03 01:10:04;;;;;;;64.88;42.22;;;;;;;;;;6262943;28;24887;-74
2024/02/03 01:13:06;;;;;;;65.23;41.17;;;;;;;;;;6260412;28;24829;-74
2024/02/03 01:16:07;;;;;;;60.90;41.13;;;;;;;;;;6263172;28;24443;-74
2024/02/03 01:19:10;;;;;;;63.47;42.10;;;;;;;;;;6264188;28;24699;-74
2024/02/03 01:22:12;;;;;;;64.68;42.63;;;;;;;;;;6266110;28;24450;-75
2024/02/03 01:25:14;;;;;;;66.43;42.40;;;;;;;;;;6263831;28;24493;-74
2024/02/03 01:28:16;;;;;;;63.15;40.97;;;;;;;;;;6262456;28;24443;-75
2024/02/03 01:31:18;;;;;;;63.63;41.97;;;;;;;;;;6265405;28;24618;-75
2024/02/03 01:34:21;;;;;;;65.93;42.38;;;;;;;;;;6262453;28;24469;-75
2024/02/03 01:37:22;;;;;;;69.10;44.10;;;;;;;;;;6262762;28;24408;-74
2024/02/03 01:40:24;;;;;;;65.13;42.70;;;;;;;;;;6265099;28;24419;-73
2024/02/03 01:43:26;;;;;;;63.87;42.97;;;;;;;;;;6248060;28;24408;-73
2024/02/03 01:46:27;;;;;;;66.30;42.53;;;;;;;;;;6263951;28;24420;-71
2024/02/03 01:49:31;;;;;;;67.17;43.33;;;;;;;;;;6263765;28;24597;-73
2024/02/03 01:52:33;;;;;;;66.93;42.85;;;;;;;;;;6267680;28;24612;-73
2024/02/03 01:55:34;;;;;;;64.57;43.17;;;;;;;;;;6266102;28;24418;-73
2024/02/03 01:58:37;;;;;;;65.68;43.20;;;;;;;;;;6267541;28;24418;-74
2024/02/03 02:01:38;;;;;;;64.28;43.20;;;;;;;;;;6263157;28;24829;-73
2024/02/03 02:04:42;;;;;;;65.68;43.00;;;;;;;;;;6265713;28;24415;-75
2024/02/03 02:07:44;;;;;;;67.68;43.53;;;;;;;;;;6266098;28;24815;-73
2024/02/03 02:10:46;;;;;;;62.38;42.33;;;;;;;;;;6264665;28;24513;-73
2024/02/03 02:13:47;;;;;;;69.15;43.20;;;;;;;;;;6266015;28;24425;-73
2024/02/03 02:16:49;;;;;;;65.50;42.83;;;;;;;;;;6262529;28;24849;-73
2024/02/03 02:19:52;;;;;;;65.40;42.35;;;;;;;;;;6263763;28;24427;-74
2024/02/03 02:22:55;;;;;;;66.25;42.72;;;;;;;;;;6266173;28;24673;-74
2024/02/03 02:25:58;;;;;;;67.55;43.92;;;;;;;;;;6262860;28;24428;-74
2024/02/03 02:29:01;;;;;;;66.65;43.40;;;;;;;;;;6264412;28;24502;-74
2024/02/03 02:32:02;;;;;;;66.13;42.50;;;;;;;;;;6264715;28;24644;-75
2024/02/03 02:35:04;;;;;;;66.93;43.38;;;;;;;;;;6262823;28;24800;-74
2024/02/03 02:38:07;;;;;;;68.53;43.83;;;;;;;;;;6264347;28;24428;-74
2024/02/03 02:41:09;;;;;;;70.72;45.00;;;;;;;;;;6260720;28;24610;-74
2024/02/03 02:44:12;;;;;;;69.65;44.50;;;;;;;;;;6263531;28;24424;-74
2024/02/03 02:47:14;;;;;;;67.57;43.60;;;;;;;;;;6268970;28;24455;-74
2024/02/03 02:50:15;;;;;;;68.83;44.77;;;;;;;;;;6262675;28;24481;-75
2024/02/03 02:53:18;;;;;;;71.22;46.22;;;;;;;;;;6262477;28;24427;-75
2024/02/03 02:56:20;;;;;;;70.05;47.30;;;;;;;;;;6264832;28;24547;-75
2024/02/03 02:59:21;;;;;;;68.47;44.95;;;;;;;;;;6263028;28;24435;-75
2024/02/03 03:02:23;;;;;;;68.63;44.92;;;;;;;;;;6249477;28;24429;-74
2024/02/03 03:05:24;;;;;;;72.00;46.47;;;;;;;;;;6247654;28;24431;-76
2024/02/03 03:08:27;;;;;;;71.10;45.78;;;;;;;;;;6263704;28;24420;-75
2024/02/03 03:11:29;;;;;;;67.72;45.20;;;;;;;;;;6264491;28;24808;-75
2024/02/03 03:14:30;;;;;;;72.22;46.83;;;;;;;;;;6262185;28;24424;-75
2024/02/03 03:17:32;;;;;;;75.70;48.05;;;;;;;;;;6261539;28;24424;-75
2024/02/03 03:20:33;;;;;;;73.72;47.35;;;;;;;;;;6260129;28;24701;-75
2024/02/03 03:23:36;;;;;;;72.53;46.80;;;;;;;;;;6259422;28;24419;-75
2024/02/03 03:26:41;;;;;;;75.38;47.38;;;;;;;;;;6265205;28;24442;-76
2024/02/03 03:29:43;;;;;;;71.57;45.97;;;;;;;;;;6271100;28;24416;-75
2024/02/03 03:32:44;;;;;;;70.25;45.47;;;;;;;;;;6266627;28;24709;-74
2024/02/03 03:35:46;;;;;;;69.90;45.00;;;;;;;;;;6268663;28;24852;-74
2024/02/03 03:38:50;;;;;;;68.63;45.97;;;;;;;;;;6268370;28;24460;-74
2024/02/03 03:41:52;;;;;;;66.88;45.78;;;;;;;;;;6267548;28;24430;-74
2024/02/03 03:44:54;;;;;;;72.13;46.75;;;;;;;;;;6267191;28;24816;-74
2024/02/03 03:47:55;;;;;;;72.53;46.05;;;;;;;;;;6264941;28;24493;-74
2024/02/03 03:50:57;;;;;;;67.78;45.38;;;;;;;;;;6265907;28;24621;-74
2024/02/03 03:54:00;;;;;;;73.63;47.35;;;;;;;;;;6268947;28;24423;-75
2024/02/03 03:57:02;;;;;;;73.80;47.95;;;;;;;;;;6267406;28;24419;-75
2024/02/03 04:00:05;;;;;;;71.75;47.10;;;;;;;;;;6265863;28;24440;-74
2024/02/03 04:03:07;;;;;;;73.28;46.65;;;;;;;;;;6265097;28;24430;-74
2024/02/03 04:06:08;;;;;;;70.20;46.80;;;;;;;;;;6264123;28;24436;-74
2024/02/03 04:09:11;;;;;;;70.75;46.20;;;;;;;;;;6265844;28;24450;-74
2024/02/03 04:12:13;;;;;;;69.38;46.35;;;;;;;;;;6267613;28;24416;-74
2024/02/03 04:15:15;;;;;;;70.57;46.33;;;;;;;;;;6266813;28;24438;-74
2024/02/03 04:18:17;;;;;;;69.35;46.63;;;;;;;;;;6263216;28;24439;-74
2024/02/03 04:21:19;;;;;;;68.88;45.63;;;;;;;;;;6265830;28;25079;-75
2024/02/03 04:24:22;;;;;;;69.40;46.17;;;;;;;;;;6266388;28;25205;-73
2024/02/03 04:27:24;;;;;;;70.43;46.08;;;;;;;;;;6267459;28;24427;-74
2024/02/03 04:30:25;;;;;;;73.85;45.67;;;;;;;;;;6268398;28;24424;-74
2024/02/03 04:33:27;;;;;;;71.22;46.08;;;;;;;;;;6264526;28;24453;-74
2024/02/03 04:36:28;;;;;;;74.38;45.42;;;;;;;;;;6264753;28;24439;-75
2024/02/03 04:39:31;;;;;;;69.65;45.17;;;;;;;;;;6265476;28;24629;-75
2024/02/03 04:42:33;;;;;;;69.25;44.92;;;;;;;;;;6266088;28;24422;-75
2024/02/03 04:45:34;;;;;;;69.55;44.30;;;;;;;;;;6266799;28;24427;-74
2024/02/03 04:48:36;;;;;;;72.32;46.38;;;;;;;;;;6263064;28;24840;-75
2024/02/03 04:51:38;;;;;;;71.63;46.00;;;;;;;;;;6265124;28;24613;-75
2024/02/03 04:54:41;;;;;;;72.63;45.25;;;;;;;;;;6269396;28;24816;-75
2024/02/03 04:57:43;;;;;;;70.05;44.55;;;;;;;;;;6247195;28;24435;-75
2024/02/03 05:00:44;;;;;;;67.57;44.17;;;;;;;;;;6262118;28;24641;-75
2024/02/03 05:03:46;;;;;;;68.23;43.47;;;;;;;;;;6265431;28;24424;-75
2024/02/03 05:06:47;;;;;;;66.82;45.00;;;;;;;;;;6263347;28;24685;-75
2024/02/03 05:09:50;;;;;;;68.63;44.33;;;;;;;;;;6263870;28;24423;-75
2024/02/03 05:12:52;;;;;;;64.07;43.00;;;;;;;;;;6263731;28;24805;-75
2024/02/03 05:15:53;;;;;;;71.88;44.80;;;;;;;;;;6265883;28;24424;-75
2024/02/03 05:18:55;;;;;;;67.55;43.15;;;;;;;;;;6263252;28;24438;-75
2024/02/03 05:21:56;;;;;;;67.60;42.63;;;;;;;;;;6264729;28;24435;-75
2024/02/03 05:25:01;;;;;;;65.68;43.55;;;;;;;;;;6262826;28;24423;-75
2024/02/03 05:28:03;;;;;;;66.90;42.78;;;;;;;;;;6266698;28;24680;-75
2024/02/03 05:31:05;;;;;;;69.03;43.80;;;;;;;;;;6263145;28;24412;-75
2024/02/03 05:34:07;;;;;;;69.53;43.63;;;;;;;;;;6262953;28;24654;-75
2024/02/03 05:37:09;;;;;;;65.53;43.08;;;;;;;;;;6264158;28;24850;-77
2024/02/03 05:40:13;;;;;;;67.30;43.42;;;;;;;;;;6263065;28;24443;-78
2024/02/03 05:43:15;;;;;;;66.85;43.28;;;;;;;;;;6263094;28;24432;-78
2024/02/03 05:46:16;;;;;;;68.30;43.92;;;;;;;;;;6265033;28;24435;-78
2024/02/03 05:49:20;;;;;;;64.38;43.30;;;;;;;;;;6264929;28;24791;-78
2024/02/03 05:52:22;;;;;;;67.27;42.13;;;;;;;;;;6266235;28;24614;-78
2024/02/03 05:55:25;;;;;;;65.33;42.40;;;;;;;;;;6264705;28;24454;-79
2024/02/03 05:58:26;;;;;;;66.25;42.38;;;;;;;;;;6264759;28;24444;-78
2024/02/03 06:01:28;;;;;;;68.43;43.03;;;;;;;;;;6266019;28;24411;-78
2024/02/03 06:04:31;;;;;;;62.93;42.30;;;;;;;;;;6262380;28;24412;-79
2024/02/03 06:07:32;;;;;;;63.80;41.70;;;;;;;;;;6250413;28;24430;-79
2024/02/03 06:10:35;;;;;;;65.05;42.45;;;;;;;;;;6260894;28;24412;-79
2024/02/03 06:13:36;;;;;;;65.75;42.85;;;;;;;;;;6267235;28;24635;-78
2024/02/03 06:16:38;;;;;;;69.72;43.88;;;;;;;;;;6266118;28;24819;-79
2024/02/03 06:19:39;;;;;;;68.72;43.50;;;;;;;;;;6262117;28;24426;-78
2024/02/03 06:22:41;;;;;;;66.45;43.50;;;;;;;;;;6263839;28;24415;-78
2024/02/03 06:25:44;;;;;;;66.85;42.60;;;;;;;;;;6262314;28;24422;-79
2024/02/03 06:28:46;;;;;;;69.45;44.35;;;;;;;;;;6261306;28;24419;-79
2024/02/03 06:31:47;;;;;;;68.50;43.88;;;;;;;;;;6263878;28;24419;-79
2024/02/03 06:34:50;;;;;;;66.50;43.17;;;;;;;;;;6256962;28;24466;-77
2024/02/03 06:37:52;;;;;;;68.50;43.70;;;;;;;;;;6245895;28;24864;-77
2024/02/03 06:40:55;;;;;;;65.53;42.63;;;;;;;;;;6258492;28;24471;-77
2024/02/03 06:43:56;;;;;;;67.20;43.67;;;;;;;;;;6262949;28;24744;-77
2024/02/03 06:46:58;;;;;;;63.83;42.63;;;;;;;;;;6263793;28;24801;-75
2024/02/03 06:49:59;;;;;;;63.53;43.05;;;;;;;;;;6262430;28;24415;-75
2024/02/03 06:53:01;;;;;;;66.97;43.67;;;;;;;;;;6267741;28;24433;-74
2024/02/03 06:56:04;;;;;;;65.57;42.42;;;;;;;;;;6262944;28;24622;-75
2024/02/03 06:59:06;;;;;;;65.53;42.83;;;;;;;;;;6264706;28;24457;-75
2024/02/03 07:02:07;;;;;;;66.32;42.53;;;;;;;;;;6264109;28;24426;-75
2024/02/03 07:05:10;;;;;;;66.03;42.88;;;;;;;;;;6265799;28;24843;-75
2024/02/03 07:08:12;;;;;;;67.30;43.70;;;;;;;;;;6269002;28;24430;-75
2024/02/03 07:11:15;;;;;;;67.65;43.70;;;;;;;;;;6267794;28;24422;-75
2024/02/03 07:14:17;;;;;;;65.85;42.58;;;;;;;;;;6266328;28;24585;-75
2024/02/03 07:17:19;;;;;;;68.55;44.10;;;;;;;;;;6264332;28;24442;-75
2024/02/03 07:20:21;;;;;;;67.60;43.30;;;;;;;;;;6269162;28;24534;-74
2024/02/03 07:23:22;;;;;;;66.70;43.50;;;;;;;;;;6267245;28;24423;-75
2024/02/03 07:26:25;;;;;;;66.70;43.47;;;;;;;;;;6267613;28;24427;-75
2024/02/03 07:29:27;;;;;;;65.95;43.55;;;;;;;;;;6268749;28;24484;-75
2024/02/03 07:32:29;;;;;;;63.50;42.17;;;;;;;;;;6266144;28;24416;-75
2024/02/03 07:35:30;;;;;;;61.35;41.88;;;;;;;;;;6267912;28;24427;-74
2024/02/03 07:38:32;;;;;;;61.92;42.67;;;;;;;;;;6268178;28;24507;-75
2024/02/03 07:41:35;;;;;;;65.00;42.38;;;;;;;;;;6266144;28;24420;-74
2024/02/03 07:44:37;;;;;;;63.13;42.03;;;;;;;;;;6267125;28;24489;-75
2024/02/03 07:47:39;;;;;;;61.30;41.60;;;;;;;;;;6263984;28;24462;-75
2024/02/03 07:50:41;;;;;;;60.57;41.90;;;;;;;;;;6264362;28;24466;-75
2024/02/03 07:53:42;;;;;;;60.75;41.38;;;;;;;;;;6266337;28;24461;-75
2024/02/03 07:56:47;;;;;;;63.63;43.23;;;;;;;;;;6266804;28;24489;-75
2024/02/03 07:59:49;;;;;;;61.38;42.42;;;;;;;;;;6267673;28;24989;-75
2024/02/03 08:02:50;;;;;;;61.60;41.60;;;;;;;;;;6254290;28;24531;-75
2024/02/03 08:05:52;;;;;;;58.95;41.53;;;;;;;;;;6268208;28;24424;-75
2024/02/03 08:08:53;;;;;;;64.07;42.53;;;;;;;;;;6265410;28;24431;-75
2024/02/03 08:11:58;;;;;;;63.75;42.17;;;;;;;;;;6265900;28;24437;-75
2024/02/03 08:14:59;;;;;;;59.97;40.83;;;;;;;;;;6263346;28;24915;-75
2024/02/03 08:18:01;;;;;;;59.30;40.50;;;;;;;;;;6264496;28;24570;-75
2024/02/03 08:21:03;;;;;;;55.67;39.33;;;;;;;;;;6267666;28;24840;-75
2024/02/03 08:24:05;;;;;;;54.25;39.42;;;;;;;;;;6266616;28;24804;-74
2024/02/03 08:27:07;;;;;;;61.08;43.80;;;;;;;;;;6265073;28;24431;-75
2024/02/03 08:30:09;;;;;;;62.00;41.65;;;;;;;;;;6266061;28;24415;-75
2024/02/03 08:33:11;;;;;;;59.80;41.30;;;;;;;;;;6266543;28;24434;-75
2024/02/03 08:36:13;;;;;;;62.57;42.27;;;;;;;;;;6264192;28;24520;-75
2024/02/03 08:39:14;;;;;;;60.75;41.55;;;;;;;;;;6263098;28;24836;-75
2024/02/03 08:42:19;;;;;;;65.78;44.17;;;;;;;;;;6261529;28;24423;-75
2024/02/03 08:45:20;;;;;;;63.78;44.05;;;;;;;;;;6265891;28;24528;-75
2024/02/03 08:48:23;;;;;;;57.80;42.10;;;;;;;;;;6262217;28;24837;-75
2024/02/03 08:51:24;;;;;;;60.83;42.03;;;;;;;;;;6265862;28;24428;-74
2024/02/03 08:54:26;;;;;;;62.53;42.33;;;;;;;;;;6265505;28;24419;-75
2024/02/03 08:57:29;;;;;;;55.73;40.60;;;;;;;;;;6263740;28;24455;-75
2024/02/03 09:00:31;;;;;;;59.85;43.63;;;;;;;;;;6269938;28;24622;-75
2024/02/03 09:03:32;;;;;;;58.83;42.47;;;;;;;;;;6265650;28;25039;-75
2024/02/03 09:06:34;;;;;;;58.30;40.63;;;;;;;;;;6264942;28;24427;-78
2024/02/03 09:09:35;;;;;;;56.45;40.67;;;;;;;;;;6266436;28;24424;-78
2024/02/03 09:12:39;;;;;;;61.78;43.83;;;;;;;;;;6266339;28;24463;-78
2024/02/03 09:15:40;;;;;;;57.33;41.93;;;;;;;;;;6264809;28;24526;-78
2024/02/03 09:18:42;;;;;;;61.50;44.30;;;;;;;;;;6265368;28;24844;-77
2024/02/03 09:21:43;;;;;;;67.82;47.15;;;;;;;;;;6264210;28;24427;-78
2024/02/03 09:24:45;;;;;;;65.95;47.80;;;;;;;;;;6261122;28;24420;-79
2024/02/03 09:27:48;;;;;;;61.70;45.25;;;;;;;;;;6262312;28;24454;-78
2024/02/03 09:30:49;;;;;;;60.92;44.70;;;;;;;;;;6260248;28;24431;-78
2024/02/03 09:33:51;;;;;;;63.00;46.88;;;;;;;;;;6266851;28;24653;-78
2024/02/03 09:36:52;;;;;;;58.67;44.57;;;;;;;;;;6262602;28;24431;-78
2024/02/03 09:39:55;;;;;;;58.42;44.25;;;;;;;;;;6262268;28;24424;-79
2024/02/03 09:42:58;;;;;;;61.85;45.17;;;;;;;;;;6262563;28;24557;-79
2024/02/03 09:46:00;;;;;;;57.10;43.28;;;;;;;;;;6264104;28;24427;-78
2024/02/03 09:49:02;;;;;;;61.75;44.30;;;;;;;;;;6262643;28;24423;-78
2024/02/03 09:52:04;;;;;;;59.17;44.83;;;;;;;;;;6263733;28;24434;-79
2024/02/03 09:55:09;;;;;;;53.25;40.40;;;;;;;;;;6260233;28;24450;-78
2024/02/03 09:58:12;;;;;;;64.70;44.45;;;;;;;;;;6262919;28;24474;-78
2024/02/03 10:01:13;;;;;;;54.35;42.78;;;;;;;;;;6264007;28;24431;-78
2024/02/03 10:04:15;;;;;;;56.78;41.88;;;;;;;;;;6263830;28;24819;-79
2024/02/03 10:07:18;;;;;;;50.45;39.38;;;;;;;;;;6261468;28;24427;-79
2024/02/03 10:10:20;;;;;;;51.38;38.90;;;;;;;;;;6263210;28;24439;-78
2024/02/03 10:13:23;;;;;;;53.45;40.25;;;;;;;;;;6263324;28;24427;-78
2024/02/03 10:16:25;;;;;;;51.95;40.63;;;;;;;;;;6262592;28;24815;-75
2024/02/03 10:19:26;;;;;;;52.35;40.00;;;;;;;;;;6262320;28;24422;-75
2024/02/03 10:22:28;;;;;;;50.83;41.33;;;;;;;;;;6262507;28;24403;-75
2024/02/03 10:25:31;;;;;;;52.47;40.90;;;;;;;;;;6264434;28;24587;-75
2024/02/03 10:28:44;;;;;;;48.90;39.05;;;;;;;;;;6263540;28;24427;-75
2024/02/03 10:31:47;;;;;;;46.72;37.78;;;;;;;;;;6263772;28;24858;-75
2024/02/03 10:34:50;;;;;;;55.95;41.67;;;;;;;;;;6258870;28;24626;-75
2024/02/03 10:37:51;;;;;;;46.85;38.83;;;;;;;;;;6261311;28;24870;-74
2024/02/03 10:40:53;;;;;;;49.05;37.97;;;;;;;;;;6262271;28;24426;-74
2024/02/03 10:43:57;;;;;;;47.00;36.90;;;;;;;;;;6264191;28;24427;-74
2024/02/03 10:47:01;;;;;;;50.47;40.05;;;;;;;;;;6264449;28;24654;-74
2024/02/03 10:50:04;;;;;;;51.65;39.45;;;;;;;;;;6261387;28;24809;-74
2024/02/03 10:53:07;;;;;;;51.37;39.70;;;;;;;;;;6264537;28;24427;-75
2024/02/03 10:56:11;;;;;;;50.78;39.10;;;;;;;;;;6262490;28;24621;-74
2024/02/03 10:59:20;;;;;;;52.15;39.97;;;;;;;;;;6266368;28;24535;-74
2024/02/03 11:02:22;;;;;;;47.92;36.80;;;;;;;;;;6263198;28;24470;-74
2024/02/03 11:05:24;;;;;;;50.95;37.25;;;;;;;;;;6260237;28;24427;-74
2024/02/03 11:08:25;;;;;;;42.30;33.55;;;;;;;;;;6262402;28;24458;-74
2024/02/03 11:11:27;;;;;;;38.03;30.50;;;;;;;;;;6263228;28;24412;-74
2024/02/03 11:14:33;;;;;;;42.78;31.75;;;;;;;;;;6263882;28;24450;-74
2024/02/03 11:17:35;;;;;;;40.20;31.00;;;;;;;;;;6259576;28;24422;-75
2024/02/03 11:20:39;;;;;;;38.93;29.90;;;;;;;;;;6264577;28;24416;-75
2024/02/03 11:23:40;;;;;;;42.72;34.33;;;;;;;;;;6261236;28;24791;-75
2024/02/03 11:26:45;;;;;;;44.78;33.22;;;;;;;;;;6260986;28;24430;-74
2024/02/03 11:29:48;;;;;;;40.23;31.37;;;;;;;;;;6261629;28;24626;-76
2024/02/03 11:32:50;;;;;;;39.53;30.02;;;;;;;;;;6264706;28;24434;-75
2024/02/03 11:35:58;;;;;;;35.35;28.05;;;;;;;;;;6262504;28;24442;-75
2024/02/03 11:38:59;;;;;;;37.90;30.13;;;;;;;;;;6261782;28;24428;-75
2024/02/03 11:42:01;;;;;;;37.80;30.33;;;;;;;;;;6258610;28;24514;-75
2024/02/03 11:45:07;;;;;;;34.65;27.58;;;;;;;;;;6261270;28;24419;-75
2024/02/03 11:48:09;;;;;;;30.75;24.27;;;;;;;;;;6264657;28;24419;-74
2024/02/03 11:51:10;;;;;;;28.60;22.17;;;;;;;;;;6265004;28;24807;-74
2024/02/03 11:54:12;;;;;;;29.98;21.88;;;;;;;;;;6265552;28;24430;-74
2024/02/03 11:57:14;;;;;;;33.50;24.35;;;;;;;;;;6265438;28;24462;-73
2024/02/03 12:00:18;;;;;;;34.70;23.83;;;;;;;;;;6271452;28;24489;-73
2024/02/03 12:03:20;;;;;;;47.40;26.98;;;;;;;;;;6270378;28;24439;-74
2024/02/03 12:06:22;;;;;;;38.42;25.83;;;;;;;;;;6266283;28;24438;-74
2024/02/03 12:09:24;;;;;;;31.65;22.67;;;;;;;;;;6265999;28;24427;-74
2024/02/03 12:12:27;;;;;;;31.50;22.67;;;;;;;;;;6267608;28;24514;-73
2024/02/03 12:15:34;;;;;;;29.35;21.73;;;;;;;;;;6265669;28;24661;-73
2024/02/03 12:18:36;;;;;;;31.30;22.63;;;;;;;;;;6266067;28;24453;-74
2024/02/03 12:21:39;;;;;;;31.58;22.77;;;;;;;;;;6265025;28;24431;-74
2024/02/03 12:24:41;;;;;;;29.00;21.65;;;;;;;;;;6265145;28;24529;-75
2024/02/03 12:27:42;;;;;;;27.75;21.33;;;;;;;;;;6269595;28;24466;-74
2024/02/03 12:30:54;;;;;;;26.25;21.27;;;;;;;;;;6267690;28;24820;-74
2024/02/03 12:33:59;;;;;;;29.02;20.55;;;;;;;;;;6265331;28;24649;-74
2024/02/03 12:37:00;;;;;;;28.20;21.52;;;;;;;;;;6265991;28;24430;-76
2024/02/03 12:40:02;;;;;;;26.10;20.15;;;;;;;;;;6266650;28;24828;-75
2024/02/03 12:43:04;;;;;;;24.33;19.38;;;;;;;;;;6264661;28;24638;-73
2024/02/03 12:46:07;;;;;;;22.65;17.15;;;;;;;;;;6267553;28;24447;-73
2024/02/03 12:49:08;;;;;;;22.15;17.35;;;;;;;;;;6267222;28;24645;-73
2024/02/03 12:52:10;;;;;;;21.05;16.17;;;;;;;;;;6265658;28;24446;-73
2024/02/03 12:55:13;;;;;;;23.70;17.23;;;;;;;;;;6266550;28;24430;-73
2024/02/03 12:58:16;;;;;;;26.35;19.02;;;;;;;;;;6266038;28;24717;-73
2024/02/03 13:01:20;;;;;;;25.15;18.58;;;;;;;;;;6269190;28;24438;-73
2024/02/03 13:04:21;;;;;;;27.80;19.83;;;;;;;;;;6266048;28;24408;-74
2024/02/03 13:07:23;;;;;;;25.77;19.25;;;;;;;;;;6268555;28;24602;-73
2024/02/03 13:10:24;;;;;;;25.13;19.75;;;;;;;;;;6264539;28;24415;-74
2024/02/03 13:13:26;;;;;;;26.50;19.47;;;;;;;;;;6262535;28;24604;-74
2024/02/03 13:16:31;;;;;;;24.63;19.38;;;;;;;;;;6265069;28;24427;-75
2024/02/03 13:19:33;;;;;;;22.63;18.60;;;;;;;;;;6263442;28;24446;-74
2024/02/03 13:22:34;;;;;;;25.30;19.48;;;;;;;;;;6264313;28;24652;-73
2024/02/03 13:25:36;;;;;;;24.10;19.00;;;;;;;;;;6269685;28;24415;-74
2024/02/03 13:28:38;;;;;;;24.45;18.63;;;;;;;;;;6266615;28;24591;-74
2024/02/03 13:31:41;;;;;;;23.53;17.60;;;;;;;;;;6271668;28;24805;-74
2024/02/03 13:34:43;;;;;;;22.77;17.48;;;;;;;;;;6262876;28;24427;-74
2024/02/03 13:37:44;;;;;;;21.35;16.88;;;;;;;;;;6264724;28;24484;-74
2024/02/03 13:40:48;;;;;;;24.17;18.60;;;;;;;;;;6265455;28;24495;-74
2024/02/03 13:43:49;;;;;;;22.00;16.80;;;;;;;;;;6261958;28;24462;-74
2024/02/03 13:46:52;;;;;;;21.48;16.77;;;;;;;;;;6267181;28;24824;-79
2024/02/03 13:49:54;;;;;;;19.97;16.50;;;;;;;;;;6266944;28;24419;-78
2024/02/03 13:52:56;;;;;;;19.38;16.10;;;;;;;;;;6264105;28;24420;-78
2024/02/03 13:55:57;;;;;;;18.90;15.00;;;;;;;;;;6264855;28;24535;-78
2024/02/03 13:58:59;;;;;;;19.85;15.57;;;;;;;;;;6263479;28;24430;-80
2024/02/03 14:02:02;;;;;;;18.75;14.98;;;;;;;;;;6265735;28;24428;-78
2024/02/03 14:05:04;;;;;;;19.08;15.27;;;;;;;;;;6263514;28;24465;-79
2024/02/03 14:08:06;;;;;;;16.70;14.80;;;;;;;;;;6264539;28;24431;-79
2024/02/03 14:11:07;;;;;;;18.77;14.60;;;;;;;;;;6261905;28;24428;-79
2024/02/03 14:14:09;;;;;;;16.57;13.43;;;;;;;;;;6265600;28;24506;-78
2024/02/03 14:17:12;;;;;;;14.68;12.57;;;;;;;;;;6263095;28;24658;-78
2024/02/03 14:20:13;;;;;;;14.07;11.97;;;;;;;;;;6262771;28;24497;-79
2024/02/03 14:23:15;;;;;;;15.40;11.82;;;;;;;;;;6263726;28;24422;-78
2024/02/03 14:26:17;;;;;;;14.85;12.05;;;;;;;;;;6265485;28;24428;-78
2024/02/03 14:29:18;;;;;;;15.77;13.07;;;;;;;;;;6262717;28;24499;-78
2024/02/03 14:32:22;;;;;;;15.35;12.77;;;;;;;;;;6261799;28;24602;-78
2024/02/03 14:35:23;;;;;;;16.58;13.50;;;;;;;;;;6261663;28;24431;-78
2024/02/03 14:38:25;;;;;;;15.18;13.07;;;;;;;;;;6261323;28;24825;-78
2024/02/03 14:41:27;;;;;;;14.13;12.15;;;;;;;;;;6259886;28;24470;-78
2024/02/03 14:44:28;;;;;;;15.85;13.38;;;;;;;;;;6264256;28;24435;-77
2024/02/03 14:47:32;;;;;;;14.93;12.30;;;;;;;;;;6262760;28;24916;-77
2024/02/03 14:50:34;;;;;;;14.20;11.82;;;;;;;;;;6266357;28;24661;-77
2024/02/03 14:53:36;;;;;;;14.85;11.55;;;;;;;;;;6261671;28;24420;-78
2024/02/03 14:56:37;;;;;;;15.10;12.90;;;;;;;;;;6264249;28;24449;-74
2024/02/03 14:59:39;;;;;;;15.75;11.13;;;;;;;;;;6264445;28;24875;-74
2024/02/03 15:02:42;;;;;;;13.80;11.50;;;;;;;;;;6259289;28;24858;-75
2024/02/03 15:05:44;;;;;;;13.32;11.07;;;;;;;;;;6258698;28;24430;-74
2024/02/03 15:08:45;;;;;;;13.57;11.00;;;;;;;;;;6258527;28;24432;-74
2024/02/03 15:11:47;;;;;;;13.25;10.70;;;;;;;;;;6262451;28;24423;-74
2024/02/03 15:14:49;;;;;;;14.27;11.20;;;;;;;;;;6261985;28;24447;-74
2024/02/03 15:17:52;;;;;;;14.02;10.93;;;;;;;;;;6265307;28;24840;-74
2024/02/03 15:20:54;;;;;;;14.05;10.75;;;;;;;;;;6260841;28;24672;-74
2024/02/03 15:23:55;;;;;;;13.00;10.18;;;;;;;;;;6266412;28;24506;-74
2024/02/03 15:26:57;;;;;;;10.43;8.57;;;;;;;;;;6267214;28;25044;-74
2024/02/03 15:29:59;;;;;;;11.93;9.50;;;;;;;;;;6262230;28;24490;-75
2024/02/03 15:33:02;;;;;;;12.68;9.63;;;;;;;;;;6265959;28;24423;-73
2024/02/03 15:36:04;;;;;;;53.58;36.50;;;;;;;;;;6270011;28;24427;-73
2024/02/03 15:39:05;;;;;;;41.42;26.90;;;;;;;;;;6256594;28;24435;-73
2024/02/03 15:42:07;;;;;;;55.15;35.05;;;;;;;;;;6269792;28;24424;-73
2024/02/03 15:45:10;;;;;;;29.17;19.58;;;;;;;;;;6267479;28;24427;-74
2024/02/03 15:48:14;;;;;;;35.60;23.60;;;;;;;;;;6265534;28;24430;-74
2024/02/03 15:51:16;;;;;;;48.42;30.55;;;;;;;;;;6266554;28;24481;-73
2024/02/03 15:54:18;;;;;;;26.17;18.07;;;;;;;;;;6263877;28;24432;-74
2024/02/03 15:57:20;;;;;;;15.43;10.87;;;;;;;;;;6264995;28;24422;-75
2024/02/03 16:00:21;;;;;;;12.27;9.27;;;;;;;;;;6266200;28;24438;-74
2024/02/03 16:03:24;;;;;;;14.67;9.33;;;;;;;;;;6267767;28;25084;-74
2024/02/03 16:06:26;;;;;;;11.98;8.90;;;;;;;;;;6266743;28;24443;-74
2024/02/03 16:09:28;;;;;;;12.47;9.20;;;;;;;;;;6267358;28;24880;-74
2024/02/03 16:12:29;;;;;;;12.55;9.00;;;;;;;;;;6266134;28;24423;-74
2024/02/03 16:15:31;;;;;;;13.53;9.13;;;;;;;;;;6266922;28;24462;-74
2024/02/03 16:18:34;;;;;;;13.53;9.50;;;;;;;;;;6269632;28;24941;-74
2024/02/03 16:21:36;;;;;;;12.18;8.88;;;;;;;;;;6263482;28;24666;-74
2024/02/03 16:24:37;;;;;;;12.63;8.50;;;;;;;;;;6267693;28;24625;-74
2024/02/03 16:27:39;;;;;;;11.30;8.50;;;;;;;;;;6264631;28;24654;-74
2024/02/03 16:30:40;;;;;;;11.23;8.80;;;;;;;;;;6265363;28;24414;-73
2024/02/03 16:33:44;;;;;;;13.00;9.23;;;;;;;;;;6243904;28;24415;-74
2024/02/03 16:36:45;;;;;;;11.63;8.55;;;;;;;;;;6263994;28;24497;-74
2024/02/03 16:39:47;;;;;;;11.15;8.00;;;;;;;;;;6264705;28;24431;-75
2024/02/03 16:42:50;;;;;;;12.00;8.40;;;;;;;;;;6265502;28;24512;-74
2024/02/03 16:45:52;;;;;;;12.40;8.63;;;;;;;;;;6266813;28;24518;-74
2024/02/03 16:48:58;;;;;;;12.65;8.52;;;;;;;;;;6261215;28;24435;-73
2024/02/03 16:52:00;;;;;;;12.13;8.60;;;;;;;;;;6267457;28;24621;-74
2024/02/03 16:55:01;;;;;;;13.87;8.67;;;;;;;;;;6262829;28;24415;-74
2024/02/03 16:58:03;;;;;;;14.25;9.55;;;;;;;;;;6265179;28;24415;-74
2024/02/03 17:01:05;;;;;;;13.40;9.48;;;;;;;;;;6267144;28;24423;-74
2024/02/03 17:04:08;;;;;;;13.32;8.75;;;;;;;;;;6265207;28;24662;-75
2024/02/03 17:07:09;;;;;;;15.15;8.77;;;;;;;;;;6263883;28;24445;-74
2024/02/03 17:10:11;;;;;;;13.65;8.95;;;;;;;;;;6264596;28;24431;-74
2024/02/03 17:13:15;;;;;;;13.95;8.73;;;;;;;;;;6261020;28;24657;-74
2024/02/03 17:16:18;;;;;;;13.50;8.85;;;;;;;;;;6266860;28;24439;-74
2024/02/03 17:19:21;;;;;;;14.30;9.25;;;;;;;;;;6262385;28;24516;-74
2024/02/03 17:22:25;;;;;;;15.30;9.52;;;;;;;;;;6264978;28;24411;-74
2024/02/03 17:25:27;;;;;;;14.38;9.27;;;;;;;;;;6265479;28;24586;-74
2024/02/03 17:28:28;;;;;;;12.55;9.07;;;;;;;;;;6267555;28;24527;-75
2024/02/03 17:31:30;;;;;;;12.97;9.10;;;;;;;;;;6263312;28;24408;-75
2024/02/03 17:34:37;;;;;;;12.80;9.30;;;;;;;;;;6260079;28;24598;-74
2024/02/03 17:37:39;;;;;;;14.05;9.77;;;;;;;;;;6266759;28;24419;-74
2024/02/03 17:40:41;;;;;;;17.52;10.27;;;;;;;;;;6263571;28;24871;-74